Terminal Aerodrome Forecast
Issued by NWS Wilmington, OH

Current Version | Previous Version | Graphics & Text | Print | Product List | Glossary On
Versions: 1 2 3 4 5 6 7 8 9 10 11 12 13 14 15 16 17 18 19 20 21 22 23
016
FTUS41 KILN 262339
TAFDAY
TAF
KDAY 262339Z 2700/2724 18004KT P6SM BKN140
     FM270100 17005KT P6SM VCTS BKN120CB
     FM270300 03008KT 5SM SHRA OVC040
      TEMPO 2703/2704 2SM TSRA OVC015CB
     FM270400 08009KT 6SM SHRA OVC070
      TEMPO 2704/2706 4SM TSRA OVC025CB
     FM270600 17006KT P6SM VCTS BKN045CB
     FM270800 18005KT P6SM VCTS BKN018CB
     FM271000 15004KT P6SM BKN017
     FM271200 20004KT P6SM BKN010
     FM271500 36007KT P6SM SCT011
     FM271700 02006KT P6SM BKN016
     FM272100 04005KT P6SM BKN035
     FM272300 06004KT P6SM SCT035=

USA.gov is the U.S. government's official web portal to all federal, state and local government web resources and services.